< Typhoon 200217 2002 Season Typhoon 200219 >
Typhoon 200218 (HAGUPIT)
General InformationTrack Information on Google MapsDetailed Wind InformationList of All Images || NewsDisaster Info.ResourceGoogle EarthGE AnimationAtom FeedGeoJSON
Detalied Best Track (Time Zone = UTC)
Year Month Day Hour Lat. Long. Pressure (hPa) Wind (kt) Class Image Chart
2002 9 9 18 19.4 118.7 1002 0 2 Image Chart
2002 9 10 00 19.5 118.0 1000 0 2 Image Chart
2002 9 10 06 19.9 117.0 998 0 2 Image Chart
2002 9 10 12 20.1 116.2 994 0 2 Image Chart
2002 9 10 18 20.5 115.5 994 0 2 Image Chart
2002 9 11 00 20.6 114.2 992 35 3 Image Chart
2002 9 11 06 20.9 113.7 990 45 3 Image Chart
2002 9 11 12 21.0 112.8 990 45 3 Image Chart
2002 9 11 18 21.6 112.2 992 35 3 Image Chart
2002 9 12 00 22.0 111.0 998 0 2 Image Chart
2002 9 12 06 22.4 110.3 1000 0 2 Image Chart
2002 9 12 12 22.2 109.7 1004 0 2 Image Chart
2002 9 12 18 22.0 109.4 1004 0 2 Image Chart
2002 9 13 00 21.7 109.1 1006 0 2 Image Chart
2002 9 13 06 21.7 109.1 1004 0 2 Image Chart
2002 9 13 12 21.6 109.1 1004 0 2 Image Chart
2002 9 13 18 21.6 109.1 1004 0 2 Image Chart
2002 9 14 00 21.6 109.3 1004 0 2 Image Chart
2002 9 14 06 21.3 109.8 1004 0 2 Image Chart
2002 9 14 12 21.1 110.8 1002 0 2 Image Chart
2002 9 14 18 21.2 111.4 1004 0 2 Image Chart
2002 9 15 00 21.3 112.3 1004 0 2 Image Chart
2002 9 15 06 21.4 112.7 1002 0 2 Image Chart
2002 9 15 12 21.7 112.7 1004 0 2 Image Chart
2002 9 15 18 21.7 112.5 1004 0 2 Image Chart
Japan Meteorological Agency Best Track Data | Correction Date : 2006-01-18
< Typhoon 200217 2002 Season Typhoon 200219 >

Help